Terminal Aerodrome Forecast
Issued by NWS

Home | Current Version | Previous Version | Text Only | Print | Product List | Glossary Off
Versions: 1 2 3 4 5 6 7 8 9 10 11 12 13

729
FTUS45 KGGW 271740
TAFSDY
TAF
KSDY 271740Z 2718/2818 VRB03KT 6SM -RA BR OVC014
     FM272200 07010KT P6SM VCSH SCT015 OVC030
     FM280100 35006KT P6SM SCT030 OVC070
      AMD LTD TO CLD VIS AND WIND=

USA.gov is the U.S. government's official web portal to all federal, state and local government web resources and services.